sensor_id;sensor_type;location;lat;lon;timestamp;P1;durP1;ratioP1;P2;durP2;ratioP2
41635;SDS011;27623;51.966;4.602;2023-02-15T00:01:35;52.33;;;25.40;;
41635;SDS011;27623;51.966;4.602;2023-02-15T00:04:01;50.33;;;24.95;;
41635;SDS011;27623;51.966;4.602;2023-02-15T00:06:27;56.13;;;25.85;;
41635;SDS011;27623;51.966;4.602;2023-02-15T00:08:55;49.47;;;25.35;;
41635;SDS011;27623;51.966;4.602;2023-02-15T00:11:21;51.63;;;24.70;;
41635;SDS011;27623;51.966;4.602;2023-02-15T00:14:12;51.15;;;25.10;;
41635;SDS011;27623;51.966;4.602;2023-02-15T00:16:40;50.05;;;25.10;;
41635;SDS011;27623;51.966;4.602;2023-02-15T00:19:06;48.85;;;26.25;;
41635;SDS011;27623;51.966;4.602;2023-02-15T00:21:34;62.65;;;26.10;;
41635;SDS011;27623;51.966;4.602;2023-02-15T00:24:01;50.65;;;24.33;;
41635;SDS011;27623;51.966;4.602;2023-02-15T00:26:27;54.55;;;27.05;;
41635;SDS011;27623;51.966;4.602;2023-02-15T00:28:53;48.17;;;24.70;;
41635;SDS011;27623;51.966;4.602;2023-02-15T00:31:19;51.92;;;25.92;;
41635;SDS011;27623;51.966;4.602;2023-02-15T00:33:45;54.00;;;26.38;;
41635;SDS011;27623;51.966;4.602;2023-02-15T00:36:11;50.13;;;26.88;;
41635;SDS011;27623;51.966;4.602;2023-02-15T00:38:37;52.88;;;25.80;;
41635;SDS011;27623;51.966;4.602;2023-02-15T00:41:04;52.25;;;25.70;;
41635;SDS011;27623;51.966;4.602;2023-02-15T00:43:31;46.65;;;24.58;;
41635;SDS011;27623;51.966;4.602;2023-02-15T00:45:58;50.33;;;24.38;;
41635;SDS011;27623;51.966;4.602;2023-02-15T00:48:23;54.40;;;25.90;;
41635;SDS011;27623;51.966;4.602;2023-02-15T00:50:49;50.80;;;24.80;;
41635;SDS011;27623;51.966;4.602;2023-02-15T00:53:19;52.08;;;25.13;;
41635;SDS011;27623;51.966;4.602;2023-02-15T00:55:44;54.88;;;27.08;;
41635;SDS011;27623;51.966;4.602;2023-02-15T00:58:10;50.67;;;24.95;;
41635;SDS011;27623;51.966;4.602;2023-02-15T01:00:37;51.03;;;26.23;;
41635;SDS011;27623;51.966;4.602;2023-02-15T01:03:03;50.95;;;26.33;;
41635;SDS011;27623;51.966;4.602;2023-02-15T01:05:29;51.25;;;24.98;;
41635;SDS011;27623;51.966;4.602;2023-02-15T01:07:57;47.08;;;24.00;;
41635;SDS011;27623;51.966;4.602;2023-02-15T01:10:26;53.65;;;25.65;;
41635;SDS011;27623;51.966;4.602;2023-02-15T01:12:52;57.00;;;26.02;;
41635;SDS011;27623;51.966;4.602;2023-02-15T01:15:18;51.97;;;25.58;;
41635;SDS011;27623;51.966;4.602;2023-02-15T01:17:44;50.47;;;23.77;;
41635;SDS011;27623;51.966;4.602;2023-02-15T01:20:14;49.33;;;26.23;;
41635;SDS011;27623;51.966;4.602;2023-02-15T01:22:40;49.58;;;25.25;;
41635;SDS011;27623;51.966;4.602;2023-02-15T01:25:05;55.05;;;25.70;;
41635;SDS011;27623;51.966;4.602;2023-02-15T01:27:31;54.50;;;25.88;;
41635;SDS011;27623;51.966;4.602;2023-02-15T01:29:56;57.88;;;27.25;;
41635;SDS011;27623;51.966;4.602;2023-02-15T01:32:22;52.83;;;24.98;;
41635;SDS011;27623;51.966;4.602;2023-02-15T01:34:48;46.97;;;23.48;;
41635;SDS011;27623;51.966;4.602;2023-02-15T01:37:13;50.00;;;25.20;;
41635;SDS011;27623;51.966;4.602;2023-02-15T01:39:38;53.28;;;25.02;;
41635;SDS011;27623;51.966;4.602;2023-02-15T01:42:04;47.05;;;24.58;;
41635;SDS011;27623;51.966;4.602;2023-02-15T01:44:46;50.05;;;24.02;;
41635;SDS011;27623;51.966;4.602;2023-02-15T01:47:22;49.17;;;24.15;;
41635;SDS011;27623;51.966;4.602;2023-02-15T01:49:56;41.03;;;21.45;;
41635;SDS011;27623;51.966;4.602;2023-02-15T01:52:26;41.47;;;23.13;;
41635;SDS011;27623;51.966;4.602;2023-02-15T01:54:52;39.70;;;20.83;;
41635;SDS011;27623;51.966;4.602;2023-02-15T01:57:19;36.88;;;18.73;;
41635;SDS011;27623;51.966;4.602;2023-02-15T01:59:49;36.83;;;18.63;;
41635;SDS011;27623;51.966;4.602;2023-02-15T02:02:21;33.97;;;17.73;;
41635;SDS011;27623;51.966;4.602;2023-02-15T02:04:52;33.58;;;17.77;;
41635;SDS011;27623;51.966;4.602;2023-02-15T02:07:27;35.38;;;17.88;;
41635;SDS011;27623;51.966;4.602;2023-02-15T02:09:54;31.80;;;17.75;;
41635;SDS011;27623;51.966;4.602;2023-02-15T02:12:20;30.90;;;17.02;;
41635;SDS011;27623;51.966;4.602;2023-02-15T02:14:48;26.33;;;14.85;;
41635;SDS011;27623;51.966;4.602;2023-02-15T02:17:26;25.98;;;14.05;;
41635;SDS011;27623;51.966;4.602;2023-02-15T02:25:07;26.92;;;15.48;;
41635;SDS011;27623;51.966;4.602;2023-02-15T02:28:06;30.92;;;15.90;;
41635;SDS011;27623;51.966;4.602;2023-02-15T02:30:49;27.73;;;15.15;;
41635;SDS011;27623;51.966;4.602;2023-02-15T02:33:39;31.67;;;14.52;;
41635;SDS011;27623;51.966;4.602;2023-02-15T02:36:27;26.40;;;15.02;;
41635;SDS011;27623;51.966;4.602;2023-02-15T02:42:02;28.35;;;14.70;;
41635;SDS011;27623;51.966;4.602;2023-02-15T02:44:44;25.10;;;14.90;;
41635;SDS011;27623;51.966;4.602;2023-02-15T02:50:29;24.83;;;14.48;;
41635;SDS011;27623;51.966;4.602;2023-02-15T02:52:55;26.40;;;14.57;;
41635;SDS011;27623;51.966;4.602;2023-02-15T02:57:54;26.20;;;14.60;;
41635;SDS011;27623;51.966;4.602;2023-02-15T03:00:21;23.98;;;14.27;;
41635;SDS011;27623;51.966;4.602;2023-02-15T03:02:48;28.65;;;15.20;;
41635;SDS011;27623;51.966;4.602;2023-02-15T03:05:21;25.23;;;14.52;;
41635;SDS011;27623;51.966;4.602;2023-02-15T03:07:50;26.25;;;14.65;;
41635;SDS011;27623;51.966;4.602;2023-02-15T03:10:18;21.02;;;12.73;;
41635;SDS011;27623;51.966;4.602;2023-02-15T03:12:47;21.15;;;12.07;;
41635;SDS011;27623;51.966;4.602;2023-02-15T03:15:16;26.80;;;13.73;;
41635;SDS011;27623;51.966;4.602;2023-02-15T03:17:48;21.52;;;13.20;;
41635;SDS011;27623;51.966;4.602;2023-02-15T03:20:20;24.92;;;13.15;;
41635;SDS011;27623;51.966;4.602;2023-02-15T03:23:32;21.98;;;13.13;;
41635;SDS011;27623;51.966;4.602;2023-02-15T03:25:44;27.27;;;13.30;;
41635;SDS011;27623;51.966;4.602;2023-02-15T03:28:16;25.10;;;12.90;;
41635;SDS011;27623;51.966;4.602;2023-02-15T03:30:48;27.08;;;14.65;;
41635;SDS011;27623;51.966;4.602;2023-02-15T03:33:18;23.92;;;13.63;;
41635;SDS011;27623;51.966;4.602;2023-02-15T03:36:01;26.77;;;13.13;;
41635;SDS011;27623;51.966;4.602;2023-02-15T03:38:40;25.92;;;14.45;;
41635;SDS011;27623;51.966;4.602;2023-02-15T03:41:12;24.17;;;13.40;;
41635;SDS011;27623;51.966;4.602;2023-02-15T03:43:48;26.27;;;14.10;;
41635;SDS011;27623;51.966;4.602;2023-02-15T03:49:03;27.42;;;14.95;;
41635;SDS011;27623;51.966;4.602;2023-02-15T03:51:32;34.85;;;15.57;;
41635;SDS011;27623;51.966;4.602;2023-02-15T03:54:05;27.73;;;14.75;;
41635;SDS011;27623;51.966;4.602;2023-02-15T03:56:34;29.10;;;15.15;;
41635;SDS011;27623;51.966;4.602;2023-02-15T03:59:02;34.53;;;17.58;;
41635;SDS011;27623;51.966;4.602;2023-02-15T04:02:03;33.97;;;17.48;;
41635;SDS011;27623;51.966;4.602;2023-02-15T04:04:43;35.75;;;18.13;;
41635;SDS011;27623;51.966;4.602;2023-02-15T04:07:11;36.42;;;17.73;;
41635;SDS011;27623;51.966;4.602;2023-02-15T04:09:37;39.45;;;19.25;;
41635;SDS011;27623;51.966;4.602;2023-02-15T04:12:38;42.25;;;19.60;;
41635;SDS011;27623;51.966;4.602;2023-02-15T04:15:03;40.15;;;19.40;;
41635;SDS011;27623;51.966;4.602;2023-02-15T04:17:48;45.63;;;19.65;;
41635;SDS011;27623;51.966;4.602;2023-02-15T04:20:13;42.65;;;19.55;;
41635;SDS011;27623;51.966;4.602;2023-02-15T04:22:57;41.67;;;20.17;;
41635;SDS011;27623;51.966;4.602;2023-02-15T04:25:41;42.83;;;20.80;;
41635;SDS011;27623;51.966;4.602;2023-02-15T04:28:06;41.90;;;21.75;;
41635;SDS011;27623;51.966;4.602;2023-02-15T04:30:32;47.38;;;22.52;;
41635;SDS011;27623;51.966;4.602;2023-02-15T04:32:58;46.15;;;21.98;;
41635;SDS011;27623;51.966;4.602;2023-02-15T04:35:23;45.72;;;20.58;;
41635;SDS011;27623;51.966;4.602;2023-02-15T04:37:51;43.70;;;21.40;;
41635;SDS011;27623;51.966;4.602;2023-02-15T04:40:17;46.55;;;20.95;;
41635;SDS011;27623;51.966;4.602;2023-02-15T04:42:42;43.42;;;21.45;;
41635;SDS011;27623;51.966;4.602;2023-02-15T04:45:08;48.90;;;23.33;;
41635;SDS011;27623;51.966;4.602;2023-02-15T04:47:33;45.45;;;21.40;;
41635;SDS011;27623;51.966;4.602;2023-02-15T04:49:59;44.13;;;20.25;;
41635;SDS011;27623;51.966;4.602;2023-02-15T04:52:24;41.95;;;20.45;;
41635;SDS011;27623;51.966;4.602;2023-02-15T04:54:49;42.50;;;21.55;;
41635;SDS011;27623;51.966;4.602;2023-02-15T04:57:17;46.17;;;21.52;;
41635;SDS011;27623;51.966;4.602;2023-02-15T04:59:42;40.80;;;19.73;;
41635;SDS011;27623;51.966;4.602;2023-02-15T05:02:08;40.33;;;19.88;;
41635;SDS011;27623;51.966;4.602;2023-02-15T05:04:34;39.03;;;19.63;;
41635;SDS011;27623;51.966;4.602;2023-02-15T05:06:59;41.80;;;19.73;;
41635;SDS011;27623;51.966;4.602;2023-02-15T05:09:24;36.88;;;18.73;;
41635;SDS011;27623;51.966;4.602;2023-02-15T05:11:50;36.45;;;18.90;;
41635;SDS011;27623;51.966;4.602;2023-02-15T05:14:15;35.97;;;18.92;;
41635;SDS011;27623;51.966;4.602;2023-02-15T05:16:41;34.97;;;17.67;;
41635;SDS011;27623;51.966;4.602;2023-02-15T05:19:06;37.75;;;18.15;;
41635;SDS011;27623;51.966;4.602;2023-02-15T05:21:32;35.83;;;18.15;;
41635;SDS011;27623;51.966;4.602;2023-02-15T05:23:57;31.00;;;17.17;;
41635;SDS011;27623;51.966;4.602;2023-02-15T05:26:23;33.22;;;17.73;;
41635;SDS011;27623;51.966;4.602;2023-02-15T05:29:08;36.78;;;18.98;;
41635;SDS011;27623;51.966;4.602;2023-02-15T05:31:34;33.03;;;17.00;;
41635;SDS011;27623;51.966;4.602;2023-02-15T05:33:59;37.05;;;18.13;;
41635;SDS011;27623;51.966;4.602;2023-02-15T05:36:25;33.28;;;17.17;;
41635;SDS011;27623;51.966;4.602;2023-02-15T05:38:51;36.33;;;17.65;;
41635;SDS011;27623;51.966;4.602;2023-02-15T05:41:16;31.75;;;17.80;;
41635;SDS011;27623;51.966;4.602;2023-02-15T05:43:42;35.70;;;18.13;;
41635;SDS011;27623;51.966;4.602;2023-02-15T05:46:07;41.25;;;18.67;;
41635;SDS011;27623;51.966;4.602;2023-02-15T05:48:36;40.83;;;19.52;;
41635;SDS011;27623;51.966;4.602;2023-02-15T05:51:03;36.13;;;18.80;;
41635;SDS011;27623;51.966;4.602;2023-02-15T05:53:31;37.83;;;18.42;;
41635;SDS011;27623;51.966;4.602;2023-02-15T05:55:59;39.10;;;18.75;;
41635;SDS011;27623;51.966;4.602;2023-02-15T05:58:27;40.15;;;19.65;;
41635;SDS011;27623;51.966;4.602;2023-02-15T06:00:54;43.95;;;20.17;;
41635;SDS011;27623;51.966;4.602;2023-02-15T06:03:20;37.42;;;19.67;;
41635;SDS011;27623;51.966;4.602;2023-02-15T06:05:45;41.90;;;20.15;;
41635;SDS011;27623;51.966;4.602;2023-02-15T06:08:11;40.50;;;19.25;;
41635;SDS011;27623;51.966;4.602;2023-02-15T06:10:36;39.53;;;21.73;;
41635;SDS011;27623;51.966;4.602;2023-02-15T06:13:01;44.85;;;19.83;;
41635;SDS011;27623;51.966;4.602;2023-02-15T06:15:27;41.10;;;20.67;;
41635;SDS011;27623;51.966;4.602;2023-02-15T06:17:52;46.80;;;19.98;;
41635;SDS011;27623;51.966;4.602;2023-02-15T06:20:18;43.78;;;20.08;;
41635;SDS011;27623;51.966;4.602;2023-02-15T06:22:43;46.30;;;21.02;;
41635;SDS011;27623;51.966;4.602;2023-02-15T06:25:08;44.28;;;21.13;;
41635;SDS011;27623;51.966;4.602;2023-02-15T06:27:36;50.47;;;22.50;;
41635;SDS011;27623;51.966;4.602;2023-02-15T06:30:02;45.75;;;21.20;;
41635;SDS011;27623;51.966;4.602;2023-02-15T06:32:29;42.38;;;20.42;;
41635;SDS011;27623;51.966;4.602;2023-02-15T06:34:54;42.35;;;20.35;;
41635;SDS011;27623;51.966;4.602;2023-02-15T06:37:22;38.67;;;19.08;;
41635;SDS011;27623;51.966;4.602;2023-02-15T06:39:47;43.45;;;20.35;;
41635;SDS011;27623;51.966;4.602;2023-02-15T06:42:12;39.20;;;19.63;;
41635;SDS011;27623;51.966;4.602;2023-02-15T06:44:38;41.40;;;19.48;;
41635;SDS011;27623;51.966;4.602;2023-02-15T06:47:03;42.50;;;20.17;;
41635;SDS011;27623;51.966;4.602;2023-02-15T06:49:29;41.15;;;20.33;;
41635;SDS011;27623;51.966;4.602;2023-02-15T06:51:54;38.35;;;19.50;;
41635;SDS011;27623;51.966;4.602;2023-02-15T06:54:19;38.78;;;18.67;;
41635;SDS011;27623;51.966;4.602;2023-02-15T06:56:45;42.42;;;21.08;;
41635;SDS011;27623;51.966;4.602;2023-02-15T06:59:10;40.20;;;21.00;;
41635;SDS011;27623;51.966;4.602;2023-02-15T07:01:36;35.13;;;18.77;;
41635;SDS011;27623;51.966;4.602;2023-02-15T07:04:02;37.10;;;19.45;;
41635;SDS011;27623;51.966;4.602;2023-02-15T07:06:30;33.35;;;18.83;;
41635;SDS011;27623;51.966;4.602;2023-02-15T07:08:56;42.55;;;20.52;;
41635;SDS011;27623;51.966;4.602;2023-02-15T07:11:24;40.67;;;19.90;;
41635;SDS011;27623;51.966;4.602;2023-02-15T07:14:09;38.10;;;20.95;;
41635;SDS011;27623;51.966;4.602;2023-02-15T07:16:34;35.90;;;18.95;;
41635;SDS011;27623;51.966;4.602;2023-02-15T07:18:59;39.90;;;21.23;;
41635;SDS011;27623;51.966;4.602;2023-02-15T07:21:25;35.95;;;19.23;;
41635;SDS011;27623;51.966;4.602;2023-02-15T07:23:50;41.20;;;21.15;;
41635;SDS011;27623;51.966;4.602;2023-02-15T07:26:16;41.15;;;20.17;;
41635;SDS011;27623;51.966;4.602;2023-02-15T07:28:42;43.33;;;20.67;;
41635;SDS011;27623;51.966;4.602;2023-02-15T07:31:08;43.38;;;22.35;;
41635;SDS011;27623;51.966;4.602;2023-02-15T07:33:34;38.88;;;19.83;;
41635;SDS011;27623;51.966;4.602;2023-02-15T07:36:01;44.65;;;22.17;;
41635;SDS011;27623;51.966;4.602;2023-02-15T07:38:29;40.05;;;22.50;;
41635;SDS011;27623;51.966;4.602;2023-02-15T07:40:57;44.95;;;21.13;;
41635;SDS011;27623;51.966;4.602;2023-02-15T07:43:27;43.30;;;22.27;;
41635;SDS011;27623;51.966;4.602;2023-02-15T07:45:53;41.88;;;22.52;;
41635;SDS011;27623;51.966;4.602;2023-02-15T07:48:18;42.33;;;20.83;;
41635;SDS011;27623;51.966;4.602;2023-02-15T07:50:44;49.85;;;22.70;;
41635;SDS011;27623;51.966;4.602;2023-02-15T07:53:09;46.92;;;21.90;;
41635;SDS011;27623;51.966;4.602;2023-02-15T07:55:35;45.05;;;21.17;;
41635;SDS011;27623;51.966;4.602;2023-02-15T07:58:00;44.50;;;22.05;;
41635;SDS011;27623;51.966;4.602;2023-02-15T08:00:28;46.85;;;20.73;;
41635;SDS011;27623;51.966;4.602;2023-02-15T08:02:55;45.45;;;21.83;;
41635;SDS011;27623;51.966;4.602;2023-02-15T08:05:39;41.55;;;20.95;;
41635;SDS011;27623;51.966;4.602;2023-02-15T08:08:06;40.90;;;20.63;;
41635;SDS011;27623;51.966;4.602;2023-02-15T08:10:52;44.38;;;21.80;;
41635;SDS011;27623;51.966;4.602;2023-02-15T08:13:36;53.42;;;23.50;;
41635;SDS011;27623;51.966;4.602;2023-02-15T08:16:18;46.53;;;23.05;;
41635;SDS011;27623;51.966;4.602;2023-02-15T08:18:44;42.38;;;21.95;;
41635;SDS011;27623;51.966;4.602;2023-02-15T08:21:12;49.67;;;23.77;;
41635;SDS011;27623;51.966;4.602;2023-02-15T08:23:38;47.83;;;23.48;;
41635;SDS011;27623;51.966;4.602;2023-02-15T08:26:03;50.22;;;24.50;;
41635;SDS011;27623;51.966;4.602;2023-02-15T08:28:29;53.83;;;24.02;;
41635;SDS011;27623;51.966;4.602;2023-02-15T08:30:55;54.42;;;24.63;;
41635;SDS011;27623;51.966;4.602;2023-02-15T08:33:21;51.50;;;25.42;;
41635;SDS011;27623;51.966;4.602;2023-02-15T08:35:46;54.05;;;26.02;;
41635;SDS011;27623;51.966;4.602;2023-02-15T08:38:11;56.65;;;26.65;;
41635;SDS011;27623;51.966;4.602;2023-02-15T08:40:40;58.17;;;27.80;;
41635;SDS011;27623;51.966;4.602;2023-02-15T08:43:05;51.88;;;27.00;;
41635;SDS011;27623;51.966;4.602;2023-02-15T08:45:32;55.42;;;27.05;;
41635;SDS011;27623;51.966;4.602;2023-02-15T08:47:57;58.88;;;27.10;;
41635;SDS011;27623;51.966;4.602;2023-02-15T08:50:22;69.90;;;26.33;;
41635;SDS011;27623;51.966;4.602;2023-02-15T08:52:48;57.60;;;27.38;;
41635;SDS011;27623;51.966;4.602;2023-02-15T08:55:13;56.75;;;25.80;;
41635;SDS011;27623;51.966;4.602;2023-02-15T08:57:38;58.72;;;26.27;;
41635;SDS011;27623;51.966;4.602;2023-02-15T09:00:09;56.30;;;26.48;;
41635;SDS011;27623;51.966;4.602;2023-02-15T09:02:36;61.60;;;28.58;;
41635;SDS011;27623;51.966;4.602;2023-02-15T09:05:02;61.05;;;26.80;;
41635;SDS011;27623;51.966;4.602;2023-02-15T09:07:27;60.42;;;29.08;;
41635;SDS011;27623;51.966;4.602;2023-02-15T09:09:53;62.00;;;27.60;;
41635;SDS011;27623;51.966;4.602;2023-02-15T09:12:19;66.32;;;29.50;;
41635;SDS011;27623;51.966;4.602;2023-02-15T09:14:44;55.63;;;27.02;;
41635;SDS011;27623;51.966;4.602;2023-02-15T09:17:09;62.10;;;28.38;;
41635;SDS011;27623;51.966;4.602;2023-02-15T09:19:35;60.72;;;30.30;;
41635;SDS011;27623;51.966;4.602;2023-02-15T09:22:00;53.47;;;28.67;;
41635;SDS011;27623;51.966;4.602;2023-02-15T09:24:26;60.78;;;30.25;;
41635;SDS011;27623;51.966;4.602;2023-02-15T09:26:51;61.20;;;30.17;;
41635;SDS011;27623;51.966;4.602;2023-02-15T09:29:17;57.72;;;29.33;;
41635;SDS011;27623;51.966;4.602;2023-02-15T09:31:44;61.17;;;30.80;;
41635;SDS011;27623;51.966;4.602;2023-02-15T09:34:14;65.78;;;29.92;;
41635;SDS011;27623;51.966;4.602;2023-02-15T09:36:42;62.00;;;28.75;;
41635;SDS011;27623;51.966;4.602;2023-02-15T09:39:18;61.08;;;29.17;;
41635;SDS011;27623;51.966;4.602;2023-02-15T09:44:27;65.47;;;30.50;;
41635;SDS011;27623;51.966;4.602;2023-02-15T09:47:10;61.55;;;30.15;;
41635;SDS011;27623;51.966;4.602;2023-02-15T09:50:00;58.05;;;29.05;;
41635;SDS011;27623;51.966;4.602;2023-02-15T10:00:46;61.03;;;28.75;;
41635;SDS011;27623;51.966;4.602;2023-02-15T10:03:37;61.50;;;29.83;;
41635;SDS011;27623;51.966;4.602;2023-02-15T10:25:10;62.65;;;29.17;;
41635;SDS011;27623;51.966;4.602;2023-02-15T10:27:45;56.80;;;27.50;;
41635;SDS011;27623;51.966;4.602;2023-02-15T10:30:15;65.57;;;29.05;;
41635;SDS011;27623;51.966;4.602;2023-02-15T10:33:04;55.70;;;28.60;;
41635;SDS011;27623;51.966;4.602;2023-02-15T10:35:44;54.60;;;27.73;;
41635;SDS011;27623;51.966;4.602;2023-02-15T10:38:35;64.55;;;29.23;;
41635;SDS011;27623;51.966;4.602;2023-02-15T10:46:40;58.25;;;30.10;;
41635;SDS011;27623;51.966;4.602;2023-02-15T11:08:07;65.32;;;30.63;;
41635;SDS011;27623;51.966;4.602;2023-02-15T11:10:36;63.50;;;30.60;;
41635;SDS011;27623;51.966;4.602;2023-02-15T11:13:16;54.15;;;28.00;;
41635;SDS011;27623;51.966;4.602;2023-02-15T11:15:56;64.15;;;30.00;;
41635;SDS011;27623;51.966;4.602;2023-02-15T11:18:28;56.75;;;28.25;;
41635;SDS011;27623;51.966;4.602;2023-02-15T11:21:13;54.88;;;27.20;;
41635;SDS011;27623;51.966;4.602;2023-02-15T11:23:45;55.60;;;27.00;;
41635;SDS011;27623;51.966;4.602;2023-02-15T11:28:54;56.88;;;27.42;;
41635;SDS011;27623;51.966;4.602;2023-02-15T11:31:43;57.65;;;28.08;;
41635;SDS011;27623;51.966;4.602;2023-02-15T11:36:55;61.38;;;27.27;;
41635;SDS011;27623;51.966;4.602;2023-02-15T11:39:23;55.88;;;25.60;;
41635;SDS011;27623;51.966;4.602;2023-02-15T11:41:54;58.95;;;27.85;;
41635;SDS011;27623;51.966;4.602;2023-02-15T11:44:25;59.00;;;27.98;;
41635;SDS011;27623;51.966;4.602;2023-02-15T11:46:57;58.20;;;28.17;;
41635;SDS011;27623;51.966;4.602;2023-02-15T11:49:30;62.63;;;28.48;;
41635;SDS011;27623;51.966;4.602;2023-02-15T11:51:57;59.90;;;29.02;;
41635;SDS011;27623;51.966;4.602;2023-02-15T11:54:26;56.97;;;28.50;;
41635;SDS011;27623;51.966;4.602;2023-02-15T11:56:58;54.83;;;27.95;;
41635;SDS011;27623;51.966;4.602;2023-02-15T11:59:30;58.80;;;26.75;;
41635;SDS011;27623;51.966;4.602;2023-02-15T12:01:59;53.65;;;27.17;;
41635;SDS011;27623;51.966;4.602;2023-02-15T12:09:36;43.92;;;23.60;;
41635;SDS011;27623;51.966;4.602;2023-02-15T12:14:50;54.15;;;26.73;;
41635;SDS011;27623;51.966;4.602;2023-02-15T12:17:26;53.45;;;25.38;;
41635;SDS011;27623;51.966;4.602;2023-02-15T12:19:55;51.65;;;24.50;;
41635;SDS011;27623;51.966;4.602;2023-02-15T12:22:28;53.38;;;25.02;;
41635;SDS011;27623;51.966;4.602;2023-02-15T12:24:58;54.90;;;25.15;;
41635;SDS011;27623;51.966;4.602;2023-02-15T12:27:29;48.60;;;25.50;;
41635;SDS011;27623;51.966;4.602;2023-02-15T12:30:04;47.13;;;25.45;;
41635;SDS011;27623;51.966;4.602;2023-02-15T12:32:36;50.42;;;24.38;;
41635;SDS011;27623;51.966;4.602;2023-02-15T12:35:32;48.30;;;23.50;;
41635;SDS011;27623;51.966;4.602;2023-02-15T12:38:02;55.13;;;27.70;;
41635;SDS011;27623;51.966;4.602;2023-02-15T12:40:31;47.08;;;24.40;;
41635;SDS011;27623;51.966;4.602;2023-02-15T12:42:58;50.22;;;24.83;;
41635;SDS011;27623;51.966;4.602;2023-02-15T12:45:30;50.05;;;25.83;;
41635;SDS011;27623;51.966;4.602;2023-02-15T12:50:39;51.25;;;24.90;;
41635;SDS011;27623;51.966;4.602;2023-02-15T12:55:31;48.22;;;23.00;;
41635;SDS011;27623;51.966;4.602;2023-02-15T13:00:31;47.30;;;23.50;;
41635;SDS011;27623;51.966;4.602;2023-02-15T13:02:57;45.65;;;22.70;;
41635;SDS011;27623;51.966;4.602;2023-02-15T13:10:51;47.03;;;23.38;;
41635;SDS011;27623;51.966;4.602;2023-02-15T13:13:27;45.30;;;23.95;;
41635;SDS011;27623;51.966;4.602;2023-02-15T13:15:56;51.72;;;23.70;;
41635;SDS011;27623;51.966;4.602;2023-02-15T13:23:39;47.63;;;22.83;;
41635;SDS011;27623;51.966;4.602;2023-02-15T13:26:09;45.88;;;23.67;;
41635;SDS011;27623;51.966;4.602;2023-02-15T13:28:50;47.92;;;23.05;;
41635;SDS011;27623;51.966;4.602;2023-02-15T13:31:23;44.50;;;22.92;;
41635;SDS011;27623;51.966;4.602;2023-02-15T13:34:03;50.38;;;23.40;;
41635;SDS011;27623;51.966;4.602;2023-02-15T13:42:05;45.83;;;23.17;;
41635;SDS011;27623;51.966;4.602;2023-02-15T13:47:27;50.92;;;23.88;;
41635;SDS011;27623;51.966;4.602;2023-02-15T13:52:46;51.00;;;24.00;;
41635;SDS011;27623;51.966;4.602;2023-02-15T13:55:27;48.08;;;24.73;;
41635;SDS011;27623;51.966;4.602;2023-02-15T13:58:21;50.17;;;24.35;;
41635;SDS011;27623;51.966;4.602;2023-02-15T14:00:48;51.80;;;24.83;;
41635;SDS011;27623;51.966;4.602;2023-02-15T14:06:03;50.55;;;23.83;;
41635;SDS011;27623;51.966;4.602;2023-02-15T14:17:14;49.70;;;24.70;;
41635;SDS011;27623;51.966;4.602;2023-02-15T14:19:47;56.83;;;25.17;;
41635;SDS011;27623;51.966;4.602;2023-02-15T14:28:07;50.22;;;25.58;;
41635;SDS011;27623;51.966;4.602;2023-02-15T14:30:40;51.10;;;24.25;;
41635;SDS011;27623;51.966;4.602;2023-02-15T14:33:28;49.33;;;24.80;;
41635;SDS011;27623;51.966;4.602;2023-02-15T14:35:58;56.38;;;25.80;;
41635;SDS011;27623;51.966;4.602;2023-02-15T14:38:45;48.22;;;25.40;;
41635;SDS011;27623;51.966;4.602;2023-02-15T14:41:41;50.45;;;25.27;;
41635;SDS011;27623;51.966;4.602;2023-02-15T14:44:31;58.78;;;25.95;;
41635;SDS011;27623;51.966;4.602;2023-02-15T14:49:49;53.72;;;26.70;;
41635;SDS011;27623;51.966;4.602;2023-02-15T14:52:15;52.17;;;25.90;;
41635;SDS011;27623;51.966;4.602;2023-02-15T15:04:55;55.28;;;27.13;;
41635;SDS011;27623;51.966;4.602;2023-02-15T15:07:26;50.75;;;26.13;;
41635;SDS011;27623;51.966;4.602;2023-02-15T15:15:03;56.85;;;27.17;;
41635;SDS011;27623;51.966;4.602;2023-02-15T15:22:32;56.63;;;28.60;;
41635;SDS011;27623;51.966;4.602;2023-02-15T15:28:02;58.35;;;28.45;;
41635;SDS011;27623;51.966;4.602;2023-02-15T15:49:30;59.30;;;28.42;;
41635;SDS011;27623;51.966;4.602;2023-02-15T15:52:16;59.97;;;30.23;;
41635;SDS011;27623;51.966;4.602;2023-02-15T15:54:44;60.38;;;30.38;;
41635;SDS011;27623;51.966;4.602;2023-02-15T15:57:29;63.88;;;30.40;;
41635;SDS011;27623;51.966;4.602;2023-02-15T15:59:58;66.03;;;28.95;;
41635;SDS011;27623;51.966;4.602;2023-02-15T16:02:24;61.15;;;29.63;;
41635;SDS011;27623;51.966;4.602;2023-02-15T16:04:50;56.17;;;29.65;;
41635;SDS011;27623;51.966;4.602;2023-02-15T16:09:52;55.72;;;29.45;;
41635;SDS011;27623;51.966;4.602;2023-02-15T16:12:19;60.00;;;28.85;;
41635;SDS011;27623;51.966;4.602;2023-02-15T16:14:45;60.10;;;29.67;;
41635;SDS011;27623;51.966;4.602;2023-02-15T16:17:20;61.17;;;29.23;;
41635;SDS011;27623;51.966;4.602;2023-02-15T16:19:49;59.63;;;29.77;;
41635;SDS011;27623;51.966;4.602;2023-02-15T16:22:26;68.50;;;29.90;;
41635;SDS011;27623;51.966;4.602;2023-02-15T16:25:11;63.40;;;29.40;;
41635;SDS011;27623;51.966;4.602;2023-02-15T16:27:42;65.28;;;31.38;;
41635;SDS011;27623;51.966;4.602;2023-02-15T16:33:07;66.88;;;30.75;;
41635;SDS011;27623;51.966;4.602;2023-02-15T16:35:33;56.35;;;29.05;;
41635;SDS011;27623;51.966;4.602;2023-02-15T16:38:00;63.60;;;29.00;;
41635;SDS011;27623;51.966;4.602;2023-02-15T16:40:27;60.55;;;29.35;;
41635;SDS011;27623;51.966;4.602;2023-02-15T16:43:04;59.88;;;29.05;;
41635;SDS011;27623;51.966;4.602;2023-02-15T16:45:35;60.95;;;29.67;;
41635;SDS011;27623;51.966;4.602;2023-02-15T16:48:10;66.65;;;29.20;;
41635;SDS011;27623;51.966;4.602;2023-02-15T16:50:41;53.58;;;27.45;;
41635;SDS011;27623;51.966;4.602;2023-02-15T16:53:14;58.58;;;28.00;;
41635;SDS011;27623;51.966;4.602;2023-02-15T16:55:45;57.35;;;28.17;;
41635;SDS011;27623;51.966;4.602;2023-02-15T16:58:15;55.40;;;26.92;;
41635;SDS011;27623;51.966;4.602;2023-02-15T17:00:42;50.28;;;25.60;;
41635;SDS011;27623;51.966;4.602;2023-02-15T17:05:44;53.88;;;26.55;;
41635;SDS011;27623;51.966;4.602;2023-02-15T17:08:28;54.17;;;26.20;;
41635;SDS011;27623;51.966;4.602;2023-02-15T17:16:26;51.13;;;25.85;;
41635;SDS011;27623;51.966;4.602;2023-02-15T17:18:54;54.05;;;27.80;;
41635;SDS011;27623;51.966;4.602;2023-02-15T17:21:24;50.50;;;25.20;;
41635;SDS011;27623;51.966;4.602;2023-02-15T17:23:58;54.80;;;26.15;;
41635;SDS011;27623;51.966;4.602;2023-02-15T17:26:29;54.92;;;26.90;;
41635;SDS011;27623;51.966;4.602;2023-02-15T17:31:53;51.88;;;25.13;;
41635;SDS011;27623;51.966;4.602;2023-02-15T17:37:43;56.83;;;25.88;;
41635;SDS011;27623;51.966;4.602;2023-02-15T17:40:14;54.95;;;25.67;;
41635;SDS011;27623;51.966;4.602;2023-02-15T17:42:45;54.75;;;26.10;;
41635;SDS011;27623;51.966;4.602;2023-02-15T17:45:10;56.40;;;27.25;;
41635;SDS011;27623;51.966;4.602;2023-02-15T17:47:35;55.05;;;26.23;;
41635;SDS011;27623;51.966;4.602;2023-02-15T17:50:02;52.38;;;26.48;;
41635;SDS011;27623;51.966;4.602;2023-02-15T17:52:30;55.13;;;24.42;;
41635;SDS011;27623;51.966;4.602;2023-02-15T17:54:55;55.72;;;25.70;;